Date,TemperatureHighF,TemperatureAvgF,TemperatureLowF,DewpointHighF,DewpointAvgF,DewpointLowF,HumidityHigh,HumidityAvg,HumidityLow,PressureMaxIn,PressureMinIn,WindSpeedMaxMPH,WindSpeedAvgMPH,GustSpeedMaxMPH,PrecipitationSumIn
2013-1-1,19.0,12.5,1.0,14.0,8.6,-4.0,89,84,76,0.00,40.00,6,2,8,0.00
2013-1-2,20.0,13.0,-2.0,13.0,5.9,-99.9,88,80,65,0.00,40.00,12,5,17,0.00
2013-1-3,20.0,5.2,-4.0,8.0,-1.9,-9.0,81,73,55,0.00,40.00,11,5,16,0.00
2013-1-4,17.0,3.6,-9.0,8.0,-4.6,-99.9,81,73,64,0.00,40.00,5,3,9,0.13
2013-1-5,22.0,7.8,-5.0,10.0,0.5,-11.0,81,72,58,0.00,40.00,9,5,14,0.01
2013-1-6,25.0,15.0,1.0,14.0,8.6,-4.0,84,76,60,0.00,40.00,10,4,12,0.00
2013-1-7,25.0,14.4,2.0,23.0,11.0,-2.0,92,86,81,0.00,40.00,13,6,18,0.00
2013-1-8,34.0,24.6,15.0,32.0,22.0,12.0,95,90,80,0.00,40.00,12,5,16,0.02
2013-1-9,41.0,37.1,31.0,32.0,30.2,29.0,91,76,63,0.00,40.00,22,16,37,0.02
2013-1-10,39.0,27.7,24.0,33.0,24.9,18.0,98,90,75,0.00,40.00,27,22,38,0.02
2013-1-11,24.0,21.0,11.0,22.0,17.0,7.0,93,84,74,0.00,40.00,26,22,34,0.00
2013-1-12,22.0,8.8,-1.0,11.0,-1.6,-99.9,85,75,61,0.00,40.00,8,4,21,0.00
2013-1-13,19.0,5.8,-5.0,9.0,-1.0,-11.0,83,73,63,0.00,40.00,7,4,24,0.00
2013-1-14,17.0,10.2,-6.0,11.0,5.0,-12.0,84,79,70,0.00,40.00,10,4,12,0.00
2013-1-15,23.0,14.6,1.0,12.0,8.7,-4.0,89,77,61,0.00,40.00,10,5,13,0.00
2013-1-16,21.0,5.7,-3.0,11.0,-6.0,-99.9,83,76,65,0.00,40.00,6,4,7,0.00
2013-1-17,18.0,3.9,-7.0,8.0,-2.7,-13.0,82,74,61,0.00,40.00,8,2,11,0.00
2013-1-18,19.0,2.2,-6.0,13.0,-3.4,-12.0,82,77,72,0.00,40.00,6,2,8,0.00
2013-1-19,19.0,2.6,-7.0,9.0,-3.2,-13.0,81,76,65,0.00,40.00,5,2,7,0.00
2013-1-20,16.0,2.2,-11.0,7.0,-4.2,-17.0,80,74,67,0.00,40.00,6,3,7,0.00
2013-1-21,20.0,3.0,-6.0,9.0,-2.9,-12.0,83,76,62,0.00,40.00,5,2,7,0.00
2013-1-22,20.0,3.3,-9.0,9.0,-3.0,-15.0,80,75,60,0.00,40.00,7,3,9,0.00
2013-1-23,24.0,10.1,-3.0,17.0,4.5,-8.0,87,78,64,0.00,40.00,9,4,15,0.00
2013-1-24,36.0,27.9,20.0,31.0,25.4,16.0,100,90,81,0.00,40.00,11,4,15,0.04
2013-1-25,44.0,35.6,30.0,38.0,33.6,30.0,100,93,75,0.00,40.00,14,6,19,0.03
2013-1-26,49.0,36.7,33.0,43.0,35.6,32.0,100,96,81,0.00,40.00,22,10,30,0.03
2013-1-27,36.0,31.3,26.0,33.0,27.2,24.0,99,85,65,0.00,40.00,23,14,31,0.00
2013-1-28,35.0,29.5,23.0,31.0,27.3,21.0,100,91,77,0.00,40.00,8,4,12,0.01
2013-1-29,38.0,32.9,29.0,32.0,30.1,28.0,100,90,75,0.00,40.00,20,10,26,0.09
2013-1-30,44.0,36.6,31.0,36.0,32.5,29.0,98,86,72,0.00,40.00,11,7,16,0.01
2013-1-31,48.0,38.4,30.0,38.0,33.8,29.0,97,85,64,0.00,40.00,9,5,13,0.00
2013-2-1,45.0,35.1,27.0,37.0,31.8,27.0,99,89,66,0.00,40.00,13,6,18,0.00
2013-2-2,46.0,32.6,24.0,34.0,29.6,23.0,100,89,61,0.00,40.00,10,4,14,0.00
2013-2-3,39.0,29.6,24.0,31.0,26.9,21.0,100,90,67,0.00,40.00,9,4,18,0.00
2013-2-4,33.0,29.6,27.0,31.0,29.3,27.0,100,99,93,0.00,40.00,6,3,9,0.00
2013-2-5,45.0,33.1,27.0,36.0,31.5,27.0,100,94,67,0.00,40.00,15,6,21,0.01
2013-2-6,46.0,33.2,27.0,37.0,28.7,25.0,100,86,45,0.00,40.00,13,5,17,0.01
2013-2-7,44.0,37.3,31.0,30.0,25.8,24.0,91,64,47,0.00,40.00,21,14,31,0.00
2013-2-8,41.0,33.7,29.0,31.0,28.4,24.0,100,82,57,0.00,40.00,29,21,42,0.00
2013-2-9,40.0,33.3,28.0,25.0,22.8,20.0,80,66,46,0.00,40.00,34,28,44,0.00
2013-2-10,44.0,35.0,28.0,25.0,21.8,18.0,79,61,36,0.00,40.00,24,20,34,0.00
2013-2-11,42.0,28.4,16.0,23.0,20.0,13.0,91,73,43,0.00,40.00,15,6,20,0.00
2013-2-12,44.0,33.0,23.0,29.0,25.0,20.0,90,74,53,0.00,40.00,18,7,23,0.00
2013-2-13,52.0,37.9,27.0,32.0,28.9,25.0,92,72,45,0.00,40.00,17,7,23,0.00
2013-2-14,48.0,37.7,30.0,29.0,26.8,25.0,81,66,42,0.00,40.00,22,13,31,0.00
2013-2-15,54.0,39.1,27.0,31.0,27.5,23.0,89,65,40,0.00,40.00,11,6,14,0.00
2013-2-16,56.0,40.0,26.0,33.0,27.1,23.0,90,63,34,0.00,40.00,27,10,36,0.00
2013-2-17,44.0,35.0,24.0,33.0,23.4,19.0,89,65,40,0.00,40.00,27,13,38,0.00
2013-2-18,47.0,32.5,16.0,24.0,16.7,13.0,87,57,27,0.00,40.00,23,12,32,0.00
2013-2-19,48.0,37.7,32.0,32.0,21.8,13.0,88,55,36,0.00,40.00,20,14,30,0.00
2013-2-20,43.0,33.4,25.0,29.0,20.9,15.0,89,63,35,0.00,40.00,27,22,37,0.00
2013-2-21,42.0,31.3,20.0,26.0,18.7,15.0,83,62,37,0.00,40.00,18,12,27,0.00
2013-2-22,45.0,34.3,24.0,34.0,25.5,21.0,96,73,42,0.00,40.00,11,4,16,0.01
2013-2-23,38.0,33.0,27.0,35.0,27.3,23.0,100,81,57,0.00,40.00,27,18,44,0.05
2013-2-24,42.0,32.1,23.0,25.0,22.5,19.0,86,69,45,0.00,40.00,23,14,31,0.01
2013-2-25,37.0,29.1,21.0,30.0,24.1,17.0,98,82,57,0.00,40.00,17,8,24,0.02
2013-2-26,40.0,30.0,22.0,29.0,21.9,18.0,99,75,43,0.00,40.00,17,8,23,0.02
2013-2-27,46.0,32.0,21.0,21.0,19.2,17.0,88,63,32,0.00,40.00,16,8,22,0.00
2013-2-28,49.0,37.9,24.0,37.0,26.0,19.0,93,64,38,0.00,40.00,13,7,18,0.00
2013-3-1,59.0,43.2,32.0,41.0,36.6,32.0,100,81,45,0.00,40.00,13,5,17,0.00
2013-3-2,58.0,42.9,29.0,37.0,33.5,28.0,100,73,41,0.00,40.00,19,8,28,0.00
2013-3-3,48.0,41.2,29.0,41.0,26.6,4.0,97,63,17,0.00,40.00,25,13,35,0.02
2013-3-4,46.0,32.7,22.0,19.0,11.1,4.0,73,45,17,0.00,40.00,16,9,21,0.01
2013-3-5,50.0,36.6,23.0,22.0,16.5,13.0,68,47,26,0.00,40.00,26,12,40,0.00
2013-3-6,58.0,44.9,30.0,27.0,21.0,8.0,67,40,15,0.00,40.00,31,16,43,0.00
2013-3-7,49.0,34.3,17.0,24.0,19.2,14.0,88,59,27,0.00,40.00,7,4,17,0.00
2013-3-8,52.0,38.1,24.0,25.0,21.4,17.0,82,55,28,0.00,40.00,17,9,23,0.00
2013-3-9,53.0,41.1,31.0,23.0,21.1,17.0,70,48,27,0.00,40.00,33,24,46,0.00
2013-3-10,57.0,42.4,26.0,22.0,16.4,10.0,69,40,16,0.00,40.00,20,10,25,0.00
2013-3-11,58.0,45.9,34.0,37.0,25.7,13.0,64,46,33,0.00,40.00,22,11,30,0.00
2013-3-12,65.0,43.8,25.0,35.0,29.6,21.0,90,62,32,0.00,40.00,8,4,15,0.00
2013-3-13,70.0,51.8,35.0,38.0,31.7,26.0,82,53,19,0.00,40.00,14,6,21,0.00
2013-3-14,69.0,49.9,35.0,38.0,33.0,29.0,82,58,23,0.00,40.00,18,6,26,0.00
2013-3-15,63.0,50.8,39.0,39.0,33.0,24.0,78,54,28,0.00,40.00,20,12,28,0.00
2013-3-16,60.0,49.5,33.0,34.0,28.8,23.0,79,47,30,0.00,40.00,26,9,37,0.00
2013-3-17,50.0,40.2,32.0,29.0,16.4,7.0,73,41,20,0.00,40.00,26,17,38,0.00
2013-3-18,51.0,35.2,18.0,21.0,15.1,11.0,75,46,26,0.00,40.00,16,8,27,0.00
2013-3-19,57.0,36.9,13.0,17.0,6.4,-6.0,76,38,7,0.00,40.00,19,7,30,0.00
2013-3-20,59.0,48.7,41.0,45.0,35.2,3.0,94,67,12,0.00,40.00,26,17,34,0.09
2013-3-21,43.0,37.3,30.0,33.0,21.2,14.0,79,55,30,0.00,40.00,22,14,32,0.01
2013-3-22,42.0,31.3,22.0,28.0,19.3,9.0,97,66,28,0.00,40.00,24,16,36,0.00
2013-3-23,41.0,29.6,19.0,20.0,13.4,4.0,84,56,21,0.00,40.00,17,12,23,0.00
2013-3-24,47.0,30.1,14.0,18.0,11.3,8.0,80,51,20,0.00,40.00,10,5,16,0.00
2013-3-25,54.0,39.0,26.0,22.0,16.4,12.0,64,42,22,0.00,40.00,18,9,25,0.00
2013-3-26,56.0,43.7,34.0,34.0,27.6,22.0,85,54,41,0.00,40.00,11,5,16,0.00
2013-3-27,66.0,43.9,30.0,39.0,31.5,26.0,90,68,30,0.00,40.00,17,6,25,0.00
2013-3-28,70.0,62.7,52.0,36.0,33.1,27.0,53,34,21,0.00,40.00,13,8,20,0.00
2013-3-29,67.0,52.9,37.0,40.0,35.9,32.0,91,56,29,0.00,40.00,12,7,21,0.00
2013-3-30,68.0,52.0,36.0,38.0,30.8,23.0,79,49,21,0.00,40.00,15,8,21,0.00
2013-3-31,74.0,50.6,28.0,38.0,28.3,23.0,84,50,19,0.00,40.00,13,6,19,0.00
2013-4-1,65.0,53.4,40.0,42.0,38.4,34.0,83,59,37,0.00,40.00,14,7,22,0.00
2013-4-2,70.0,55.3,42.0,40.0,34.7,28.0,79,50,23,0.00,40.00,22,12,30,0.00
2013-4-3,73.0,54.0,35.0,38.0,32.7,26.0,80,49,25,0.00,40.00,10,5,21,0.00
2013-4-4,71.0,55.5,40.0,47.0,35.9,32.0,75,51,25,0.00,40.00,20,8,38,0.00
2013-4-5,62.0,52.6,42.0,43.0,38.1,31.0,88,60,31,0.00,40.00,22,8,28,0.01
2013-4-6,56.0,48.5,43.0,44.0,41.0,36.0,96,76,58,0.00,40.00,19,6,29,0.04
2013-4-7,57.0,47.2,40.0,44.0,39.8,34.0,97,79,42,0.00,40.00,24,8,48,0.06
2013-4-8,55.0,43.4,33.0,38.0,27.4,22.0,91,57,29,0.00,40.00,37,28,52,0.02
2013-4-9,60.0,46.4,34.0,27.0,22.6,18.0,68,43,20,0.00,40.00,34,29,44,0.00
2013-4-10,64.0,51.1,36.0,45.0,31.9,22.0,79,50,31,0.00,40.00,21,12,28,0.00
2013-4-11,58.0,47.5,37.0,41.0,26.8,17.0,77,49,21,0.00,40.00,28,20,37,0.00
2013-4-12,64.0,48.3,33.0,28.0,22.8,15.0,76,43,15,0.00,40.00,19,10,25,0.00
2013-4-13,55.0,49.5,33.0,40.0,20.8,3.0,77,34,13,0.00,40.00,36,18,48,0.01
2013-4-14,48.0,37.7,21.0,21.0,15.3,12.0,74,42,24,0.00,40.00,17,10,23,0.01
2013-4-15,53.0,40.2,27.0,24.0,18.2,11.0,73,44,19,0.00,40.00,16,13,27,0.00
2013-4-16,53.0,40.2,31.0,30.0,22.4,12.0,87,55,21,0.00,40.00,31,18,40,0.00
2013-4-17,52.0,39.9,27.0,18.0,11.9,4.0,62,36,16,0.00,40.00,26,21,45,0.00
2013-4-18,56.0,42.6,26.0,23.0,15.2,5.0,52,34,21,0.00,40.00,22,15,32,0.00
2013-4-19,55.0,46.4,35.0,46.0,35.1,21.0,93,66,43,0.00,40.00,13,6,28,0.05
2013-4-20,61.0,50.2,40.0,44.0,35.0,28.0,92,61,30,0.00,40.00,26,15,35,0.05
2013-4-21,66.0,48.9,28.0,35.0,29.2,25.0,90,53,24,0.00,40.00,17,9,27,0.00
2013-4-22,57.0,47.4,37.0,34.0,21.3,10.0,65,40,16,0.00,40.00,29,23,40,0.00
2013-4-23,58.0,42.2,22.0,21.0,12.8,1.0,74,36,12,0.00,40.00,16,8,23,0.00
2013-4-24,65.0,49.0,34.0,22.0,15.3,11.0,52,29,12,0.00,40.00,14,7,19,0.00
2013-4-25,71.0,49.9,27.0,23.0,17.2,13.0,65,34,11,0.00,40.00,22,9,30,0.00
2013-4-26,76.0,60.0,44.0,31.0,26.4,18.0,55,31,12,0.00,40.00,18,12,29,0.00
2013-4-27,79.0,60.1,38.0,34.0,27.3,21.0,64,33,14,0.00,40.00,14,7,28,0.00
2013-4-28,71.0,60.0,48.0,31.0,28.3,21.0,44,31,21,0.00,40.00,19,14,29,0.00
2013-4-29,72.0,56.5,40.0,35.0,28.1,23.0,55,35,19,0.00,40.00,27,16,41,0.00
2013-4-30,53.0,46.3,37.0,20.0,13.6,8.0,47,28,16,0.00,40.00,27,21,36,0.00
2013-5-1,58.0,44.3,29.0,20.0,14.0,7.0,64,34,14,0.00,40.00,18,15,28,0.00
2013-5-2,71.0,50.0,23.0,16.0,9.5,4.0,53,25,8,0.00,40.00,14,8,25,0.00
2013-5-3,73.0,54.7,33.0,24.0,16.7,11.0,39,24,10,0.00,40.00,23,10,32,0.00
2013-5-4,69.0,57.5,45.0,42.0,33.6,24.0,73,42,25,0.00,40.00,19,9,27,0.00
2013-5-5,79.0,58.0,34.0,36.0,29.5,23.0,78,41,14,0.00,40.00,12,6,23,0.00
2013-5-6,82.0,60.8,43.0,45.0,33.2,26.0,62,39,16,0.00,40.00,22,8,37,0.00
2013-5-7,74.0,58.0,44.0,53.0,43.0,36.0,84,60,31,0.00,40.00,19,7,33,0.02
2013-5-8,78.0,60.7,43.0,49.0,43.3,37.0,93,59,23,0.00,40.00,19,7,30,0.02
2013-5-9,84.0,64.7,44.0,45.0,38.8,32.0,83,44,16,0.00,40.00,22,7,31,0.00
2013-5-10,87.0,68.2,47.0,41.0,32.7,-99.9,67,34,13,0.00,40.00,12,6,23,0.00
2013-5-11,91.0,69.7,49.0,38.0,30.5,-99.9,66,30,9,0.00,40.00,14,7,23,0.00
2013-5-12,93.0,74.7,54.0,40.0,33.0,28.0,49,25,11,0.00,40.00,15,6,30,0.00
2013-5-13,94.0,76.0,53.0,43.0,30.9,16.0,45,24,6,0.00,40.00,30,11,40,0.00
2013-5-14,80.0,65.5,51.0,43.0,37.5,32.0,63,39,21,0.00,40.00,25,16,32,0.00
2013-5-15,81.0,65.1,52.0,36.0,33.6,31.0,52,33,17,0.00,40.00,21,15,27,0.00
2013-5-16,68.0,56.1,54.0,49.0,25.5,-99.9,81,46,31,0.00,40.00,24,13,32,0.00
2013-5-17,66.0,57.0,53.0,50.0,43.5,-99.9,88,64,41,0.00,40.00,16,9,27,0.01
2013-5-18,68.0,57.4,47.0,45.0,36.8,29.0,82,51,25,0.00,40.00,21,16,31,0.01
2013-5-19,67.0,57.5,47.0,38.0,34.7,31.0,67,44,27,0.00,40.00,31,24,47,0.00
2013-5-20,77.0,60.5,45.0,38.0,33.4,25.0,66,40,18,0.00,40.00,22,12,32,0.00
2013-5-21,86.0,64.4,44.0,36.0,26.8,13.0,48,28,7,0.00,40.00,28,15,38,0.00
2013-5-22,58.0,49.7,38.0,32.0,17.7,3.0,58,32,11,0.00,40.00,25,17,33,0.00
2013-5-23,65.0,49.5,30.0,21.0,11.3,3.0,52,24,10,0.00,40.00,17,10,28,0.00
2013-5-24,75.0,57.2,30.0,28.0,18.4,9.0,50,24,11,0.00,40.00,20,10,27,0.00
2013-5-25,73.0,61.5,49.0,32.0,29.9,25.0,51,32,19,0.00,40.00,25,16,34,0.00
2013-5-26,72.0,57.9,45.0,49.0,36.6,23.0,86,48,25,0.00,40.00,21,11,37,0.04
2013-5-27,70.0,53.0,35.0,50.0,40.9,31.0,97,70,24,0.00,40.00,22,5,29,0.02
2013-5-28,65.0,54.9,47.0,50.0,44.5,38.0,100,72,39,0.00,40.00,21,12,31,0.01
2013-5-29,66.0,51.9,38.0,48.0,40.0,33.0,97,68,30,0.00,40.00,18,8,34,0.04
2013-5-30,67.0,55.8,45.0,43.0,36.4,28.0,85,54,25,0.00,40.00,22,15,31,0.02
2013-5-31,70.0,57.0,41.0,34.0,29.7,25.0,68,39,19,0.00,40.00,19,15,36,0.00
2013-6-1,82.0,63.6,43.0,32.0,29.3,27.0,61,32,14,0.00,40.00,12,7,19,0.00
2013-6-2,79.0,65.9,50.0,41.0,34.9,23.0,62,34,15,0.00,40.00,30,16,44,0.00
2013-6-3,76.0,62.6,46.0,38.0,30.8,23.0,65,34,14,0.00,40.00,20,14,29,0.00
2013-6-4,80.0,65.7,52.0,37.0,32.0,26.0,50,31,15,0.00,40.00,18,12,31,0.00
2013-6-5,87.0,69.2,46.0,35.0,31.1,26.0,58,28,11,0.00,40.00,19,8,28,0.00
2013-6-6,94.0,76.1,53.0,39.0,33.7,29.0,47,24,12,0.00,40.00,15,7,27,0.00
2013-6-7,91.0,77.7,63.0,49.0,40.1,30.0,57,29,13,0.00,40.00,22,14,36,0.00
2013-6-8,88.0,73.7,59.0,46.0,33.9,13.0,52,28,7,0.00,40.00,23,18,30,0.00
2013-6-9,95.0,77.8,53.0,40.0,35.0,29.0,50,23,13,0.00,40.00,14,9,23,0.00
2013-6-10,88.0,76.9,63.0,43.0,34.1,28.0,37,22,13,0.00,40.00,23,16,29,0.00
2013-6-11,87.0,73.4,58.0,41.0,33.6,28.0,36,24,15,0.00,40.00,16,8,24,0.00
2013-6-12,82.0,66.6,52.0,47.0,35.6,30.0,54,35,16,0.00,40.00,23,14,32,0.01
2013-6-13,71.0,61.1,53.0,41.0,33.6,28.0,56,37,20,0.00,40.00,25,20,41,0.01
2013-6-14,71.0,57.2,37.0,36.0,29.7,18.0,70,40,15,0.00,40.00,14,9,24,0.00
2013-6-15,86.0,64.7,38.0,29.0,23.1,16.0,55,25,8,0.00,40.00,14,8,21,0.00
2013-6-16,93.0,74.0,53.0,30.0,25.0,16.0,37,19,6,0.00,40.00,15,7,27,0.00
2013-6-17,94.0,76.3,57.0,40.0,30.8,20.0,45,22,8,0.00,40.00,15,8,26,0.00
2013-6-18,91.0,73.5,55.0,43.0,31.1,19.0,44,23,9,0.00,40.00,39,12,56,0.00
2013-6-19,70.0,59.3,47.0,45.0,39.6,35.0,89,50,28,0.00,40.00,25,18,34,0.00
2013-6-20,71.0,48.9,35.0,46.0,39.2,30.0,99,76,23,0.00,40.00,8,3,20,0.01
2013-6-22,75.0,67.7,54.0,41.0,34.8,27.0,61,32,19,0.00,40.00,15,10,22,0.00
2013-6-23,88.0,68.4,42.0,41.0,31.1,25.0,52,29,12,0.00,40.00,18,8,23,0.00
2013-6-24,75.0,66.4,54.0,55.0,47.5,37.0,90,55,26,0.00,40.00,21,8,35,0.10
2013-6-25,72.0,62.1,53.0,60.0,54.4,50.0,96,77,51,0.00,40.00,14,6,19,0.10
2013-6-26,89.0,72.8,58.0,61.0,53.7,46.0,98,60,24,0.00,40.00,12,6,21,0.02
2013-6-27,98.0,78.1,61.0,59.0,51.5,39.0,83,48,15,0.00,40.00,16,10,21,0.00
2013-6-28,104.0,85.1,65.0,51.0,42.4,37.0,42,25,10,0.00,40.00,14,8,22,0.00
2013-6-29,105.0,89.5,71.0,57.0,46.3,40.0,54,26,11,0.00,40.00,15,9,23,0.00
2013-6-30,104.0,87.3,67.0,60.0,51.9,39.0,69,35,11,0.00,40.00,18,9,27,0.00
2013-7-1,110.0,91.6,69.0,59.0,45.6,33.0,47,25,8,0.00,40.00,18,10,26,0.00
2013-7-2,107.0,92.9,74.0,54.0,45.8,41.0,39,22,11,0.00,40.00,19,8,27,0.00
2013-7-3,96.0,85.4,72.0,66.0,55.6,45.0,80,42,19,0.00,40.00,21,12,31,0.01
2013-7-4,96.0,81.4,64.0,62.0,46.2,39.0,85,34,14,0.00,40.00,26,15,56,0.02
2013-7-5,92.0,75.8,58.0,59.0,44.4,35.0,86,40,16,0.00,40.00,16,9,25,0.02
2013-7-6,93.0,74.4,60.0,40.0,36.4,27.0,43,27,12,0.00,40.00,21,13,28,0.00
2013-7-7,97.0,80.9,60.0,44.0,36.0,27.0,49,23,11,0.00,40.00,17,8,24,0.00
2013-7-8,96.0,77.5,59.0,44.0,37.5,32.0,47,26,13,0.00,40.00,18,9,27,0.00
2013-7-9,99.0,82.0,65.0,41.0,33.3,25.0,41,20,8,0.00,40.00,16,10,21,0.00
2013-7-10,102.0,86.5,63.0,34.0,27.9,-99.9,25,13,8,0.00,40.00,14,6,26,0.00
2013-7-11,88.0,78.8,72.0,48.0,37.6,26.0,39,24,13,0.00,40.00,24,12,34,0.00
2013-7-12,97.0,76.0,60.0,50.0,41.2,8.0,65,36,4,0.00,40.00,15,9,27,0.00
2013-7-13,88.0,74.3,59.0,36.0,29.8,21.0,31,20,14,0.00,40.00,26,17,33,0.00
2013-7-14,97.0,78.2,59.0,37.0,29.3,21.0,39,20,7,0.00,40.00,14,8,22,0.00
2013-7-15,103.0,82.0,60.0,38.0,30.6,22.0,27,17,8,0.00,40.00,14,6,22,0.00
2013-7-16,100.0,93.8,80.0,55.0,48.1,45.0,39,22,16,0.00,40.00,23,14,37,0.01
2013-7-17,97.0,84.4,69.0,56.0,40.0,18.0,58,27,6,0.00,40.00,16,10,26,0.01
2013-7-18,100.0,86.4,66.0,40.0,29.2,19.0,34,15,6,0.00,40.00,17,12,27,0.00
2013-7-19,103.0,84.4,66.0,38.0,28.2,16.0,31,15,5,0.00,40.00,16,8,26,0.00
2013-7-20,101.0,85.5,70.0,40.0,33.5,23.0,31,17,7,0.00,40.00,21,14,30,0.00
2013-7-21,99.0,84.9,68.0,35.0,24.6,4.0,28,14,3,0.00,40.00,19,14,28,0.00
2013-7-22,99.0,80.4,59.0,28.0,18.9,8.0,30,12,4,0.00,40.00,20,11,30,0.00
2013-7-23,100.0,78.4,60.0,30.0,23.4,4.0,28,15,3,0.00,40.00,14,8,22,0.00
2013-7-24,97.0,81.7,68.0,38.0,28.9,22.0,23,15,11,0.00,40.00,15,8,26,0.00
2013-7-25,101.0,85.7,72.0,43.0,36.4,28.0,32,19,8,0.00,40.00,20,11,30,0.00
2013-7-26,101.0,83.4,68.0,39.0,33.7,26.0,28,18,10,0.00,40.00,18,7,22,0.00
2013-7-27,95.0,85.3,73.0,41.0,33.8,28.0,25,17,10,0.00,40.00,20,13,32,0.00
2013-7-28,92.0,76.3,60.0,32.0,27.2,19.0,30,18,9,0.00,40.00,14,9,23,0.00
2013-7-29,92.0,76.5,60.0,35.0,28.9,22.0,37,20,8,0.00,40.00,18,11,24,0.00
2013-7-30,97.0,80.3,56.0,43.0,29.2,21.0,32,17,8,0.00,40.00,15,7,23,0.00
2013-7-31,98.0,80.6,58.0,38.0,30.6,19.0,26,17,10,0.00,40.00,21,9,27,0.00
2013-8-1,92.0,79.8,64.0,41.0,38.0,29.0,42,24,12,0.00,40.00,33,15,56,0.00
2013-8-2,84.0,69.0,49.0,47.0,39.2,28.0,74,39,17,0.00,40.00,15,9,23,0.00
2013-8-3,89.0,73.0,57.0,43.0,35.6,28.0,55,30,11,0.00,40.00,18,12,26,0.00
2013-8-4,96.0,80.9,62.0,42.0,33.3,28.0,44,20,10,0.00,40.00,16,10,21,0.00
2013-8-5,98.0,80.3,59.0,38.0,31.0,26.0,41,19,9,0.00,40.00,15,8,26,0.00
2013-8-6,95.0,81.6,68.0,42.0,35.4,25.0,38,22,9,0.00,40.00,20,15,30,0.00
2013-8-7,99.0,79.8,61.0,36.0,29.9,24.0,26,17,9,0.00,40.00,26,8,39,0.00
2013-8-8,96.0,82.7,70.0,41.0,35.3,31.0,33,19,10,0.00,40.00,22,11,31,0.00
2013-8-9,96.0,81.7,65.0,48.0,38.0,22.0,50,26,7,0.00,40.00,20,10,31,0.00
2013-8-10,96.0,80.0,55.0,46.0,38.7,22.0,53,27,7,0.00,40.00,18,8,25,0.00
2013-8-11,92.0,77.8,68.0,47.0,42.2,34.0,46,30,15,0.00,40.00,20,12,28,0.00
2013-8-12,91.0,77.1,63.0,47.0,39.6,33.0,54,29,13,0.00,40.00,19,10,27,0.00
2013-8-13,96.0,80.3,68.0,46.0,37.9,-99.9,42,24,11,0.00,40.00,21,9,28,0.00
2013-8-14,100.0,78.4,60.0,41.0,29.3,-99.9,40,22,6,0.00,40.00,14,7,22,0.00
2013-8-15,100.0,74.4,55.0,34.0,16.4,-99.9,26,15,6,0.00,40.00,12,6,18,0.00
2013-8-16,98.0,81.6,58.0,45.0,34.3,25.0,48,22,8,0.00,40.00,17,9,22,0.00
2013-8-17,96.0,77.9,57.0,49.0,36.5,-99.9,52,26,12,0.00,40.00,13,8,19,0.00
2013-8-18,97.0,80.5,66.0,50.0,44.4,33.0,56,31,14,0.00,40.00,20,13,26,0.00
2013-8-19,97.0,78.4,68.0,44.0,31.2,-99.9,41,24,13,0.00,40.00,15,10,23,0.00
2013-8-20,96.0,78.5,66.0,44.0,37.3,-99.9,44,26,13,0.00,40.00,17,12,24,0.00
2013-8-21,92.0,75.1,56.0,45.0,39.3,33.0,45,29,18,0.00,40.00,13,5,20,0.00
2013-8-22,94.0,75.9,59.0,54.0,45.7,39.0,56,37,17,0.00,40.00,18,8,32,0.00
2013-8-23,85.0,73.2,62.0,56.0,49.0,38.0,76,47,21,0.00,40.00,16,11,24,0.00
2013-8-24,92.0,72.0,54.0,51.0,41.0,-99.9,68,38,14,0.00,40.00,18,8,30,0.00
2013-8-25,91.0,76.8,58.0,50.0,43.2,35.0,63,33,14,0.00,40.00,20,10,42,0.00
2013-8-26,92.0,75.7,58.0,45.0,39.3,36.0,50,29,14,0.00,40.00,14,6,24,0.00
2013-8-27,90.0,66.9,55.0,50.0,39.1,34.0,49,37,22,0.00,40.00,12,4,25,0.00
2013-8-28,93.0,88.0,75.0,51.0,46.1,43.0,39,24,18,0.00,40.00,10,7,17,0.00
2013-8-29,97.0,82.9,72.0,52.0,47.8,29.0,46,32,9,0.00,40.00,17,12,27,0.00
2013-8-30,92.0,79.5,56.0,47.0,37.5,29.0,55,25,12,0.00,40.00,14,10,20,0.00
2013-8-31,97.0,74.4,51.0,38.0,32.1,-99.9,44,25,10,0.00,40.00,8,4,13,0.00
2013-9-1,98.0,78.8,58.0,39.0,32.3,25.0,35,20,10,0.00,40.00,14,8,20,0.00
2013-9-2,90.0,78.2,68.0,59.0,45.5,35.0,70,34,20,0.00,40.00,21,10,31,0.00
2013-9-3,84.0,70.7,64.0,64.0,60.5,55.0,94,73,37,0.00,40.00,12,8,19,0.01
2013-9-4,93.0,76.0,61.0,63.0,57.0,49.0,92,58,23,0.00,40.00,19,9,30,0.03
2013-9-5,88.0,72.9,63.0,64.0,59.3,52.0,95,66,31,0.00,40.00,27,10,35,0.14
2013-9-6,79.0,68.4,59.0,64.0,49.4,38.0,100,59,24,0.00,40.00,21,12,29,0.02
2013-9-7,86.0,67.8,53.0,49.0,41.5,-99.9,75,44,19,0.00,40.00,11,6,17,0.00
2013-9-8,83.0,67.1,49.0,52.0,44.3,40.0,84,48,24,0.00,40.00,22,9,32,0.00
2013-9-9,83.0,69.4,56.0,46.0,44.6,41.0,66,43,23,0.00,40.00,21,14,27,0.00
2013-9-10,88.0,70.6,48.0,46.0,42.2,40.0,74,41,19,0.00,40.00,8,6,18,0.00
2013-9-11,92.0,72.8,53.0,50.0,41.3,39.0,62,36,16,0.00,40.00,15,6,20,0.00
2013-9-12,89.0,71.8,62.0,62.0,55.8,49.0,91,61,29,0.00,40.00,20,7,35,0.22
2013-9-13,81.0,68.3,59.0,61.0,57.6,52.0,99,73,38,0.00,40.00,13,6,20,0.20
2013-9-14,85.0,69.1,57.0,58.0,53.8,-99.9,94,64,30,0.00,40.00,14,7,24,0.00
2013-9-15,89.0,72.9,56.0,55.0,50.1,46.0,82,51,23,0.00,40.00,21,12,31,0.00
2013-9-16,89.0,76.4,60.0,54.0,45.0,34.0,74,37,14,0.00,40.00,21,9,32,0.00
2013-9-17,78.0,64.8,55.0,49.0,44.0,39.0,76,49,27,0.00,40.00,24,11,38,0.00
2013-9-18,55.0,52.8,47.0,44.0,39.5,30.0,68,60,44,0.00,40.00,16,10,25,0.00
2013-9-19,73.0,53.9,36.0,34.0,28.1,19.0,79,44,14,0.00,40.00,15,6,23,0.00
2013-9-20,87.0,65.1,40.0,33.0,25.8,21.0,62,28,9,0.00,40.00,24,12,35,0.00
2013-9-21,78.0,64.3,51.0,41.0,30.4,-99.9,54,31,15,0.00,40.00,30,12,48,0.00
2013-9-22,68.0,57.4,49.0,43.0,38.8,33.0,73,52,31,0.00,40.00,21,12,29,0.00
2013-9-23,75.0,59.6,43.0,43.0,37.4,32.0,79,48,23,0.00,40.00,10,4,16,0.00
2013-9-24,62.0,55.1,48.0,49.0,39.5,32.0,91,58,39,0.00,40.00,27,10,38,0.07
2013-9-25,52.0,47.4,44.0,45.0,41.5,39.0,93,80,65,0.00,40.00,18,11,26,0.01
2013-9-26,54.0,46.4,43.0,45.0,41.8,38.0,97,85,57,0.00,40.00,17,11,23,0.42
2013-9-27,59.0,48.3,39.0,42.0,36.9,33.0,97,68,37,0.00,40.00,21,13,28,0.10
2013-9-28,72.0,57.3,48.0,44.0,36.0,-99.9,78,49,24,0.00,40.00,16,10,24,0.00
2013-9-29,67.0,60.7,50.0,49.0,40.5,32.0,97,52,28,0.00,40.00,16,11,31,0.00
2013-9-30,65.0,55.5,47.0,50.0,44.4,37.0,97,69,40,0.00,40.00,26,11,36,0.01
2013-10-1,62.0,55.3,46.0,36.0,34.7,33.0,67,46,38,0.00,40.00,19,15,27,0.00
2013-10-2,57.0,45.5,36.0,36.0,30.9,27.0,83,59,32,0.00,40.00,16,8,22,0.00
2013-10-3,55.0,46.4,40.0,33.0,30.1,23.0,72,54,31,0.00,40.00,35,20,44,0.00
2013-10-4,60.0,46.0,35.0,32.0,27.5,22.0,81,53,23,0.00,40.00,23,12,32,0.00
2013-10-5,66.0,44.6,26.0,29.0,24.9,22.0,88,53,19,0.00,40.00,6,4,12,0.00
2013-10-6,75.0,51.2,32.0,30.0,24.2,17.0,76,44,11,0.00,40.00,16,8,23,0.00
2013-10-7,74.0,57.0,40.0,34.0,25.7,20.0,60,33,13,0.00,40.00,15,6,21,0.00
2013-10-8,56.0,47.8,36.0,35.0,31.4,28.0,84,55,35,0.00,40.00,18,11,25,0.00
2013-10-9,60.0,47.6,37.0,36.0,33.8,31.0,92,62,34,0.00,40.00,19,13,25,0.00
2013-10-10,58.0,47.1,34.0,34.0,31.8,28.0,90,57,35,0.00,40.00,25,16,34,0.00
2013-10-11,59.0,47.1,38.0,30.0,27.3,24.0,65,48,28,0.00,40.00,17,11,23,0.00
2013-10-12,64.0,48.0,35.0,34.0,26.2,-99.9,73,47,24,0.00,40.00,17,7,25,0.00
2013-10-13,60.0,49.1,39.0,37.0,33.8,29.0,82,58,35,0.00,40.00,24,18,34,0.00
2013-10-14,58.0,47.3,38.0,32.0,27.8,23.0,68,49,26,0.00,40.00,23,17,33,0.00
2013-10-15,60.0,45.1,28.0,31.0,26.2,23.0,81,50,25,0.00,40.00,10,6,15,0.00
2013-10-16,64.0,42.3,24.0,28.0,23.5,19.0,83,53,21,0.00,40.00,9,5,14,0.00
2013-10-17,60.0,47.6,35.0,32.0,28.2,25.0,72,49,30,0.00,40.00,22,13,31,0.00
2013-10-18,62.0,44.4,25.0,31.0,26.8,21.0,90,55,25,0.00,40.00,12,6,16,0.00
2013-10-19,66.0,42.4,24.0,30.0,23.3,-99.9,80,53,25,0.00,40.00,11,4,17,0.00
2013-10-20,67.0,51.6,36.0,33.0,30.6,29.0,78,49,25,0.00,40.00,21,13,30,0.00
2013-10-21,68.0,50.8,32.0,34.0,31.5,26.0,80,51,26,0.00,40.00,15,7,21,0.00
2013-10-22,70.0,47.0,30.0,33.0,28.6,23.0,78,53,24,0.00,40.00,8,4,13,0.00
2013-10-23,72.0,47.5,29.0,36.0,28.3,22.0,79,53,21,0.00,40.00,9,5,14,0.00
2013-10-24,48.0,33.8,29.0,36.0,27.3,24.0,83,77,63,0.00,40.00,6,4,7,0.00
2013-10-25,69.0,57.8,37.0,35.0,32.9,27.0,68,41,27,0.00,40.00,9,5,29,0.00
2013-10-26,71.0,46.3,29.0,35.0,27.6,-99.9,85,55,24,0.00,40.00,9,4,12,0.00
2013-10-27,69.0,47.6,29.0,35.0,25.9,20.0,79,50,17,0.00,40.00,18,10,25,0.00
2013-10-28,48.0,43.5,40.0,43.0,40.3,35.0,98,89,61,0.00,40.00,20,14,32,0.13
2013-10-29,51.0,42.0,34.0,40.0,37.2,33.0,99,84,59,0.00,40.00,15,8,19,0.07
2013-10-30,50.0,39.7,31.0,34.0,31.7,28.0,93,75,51,0.00,40.00,15,8,21,0.01
2013-10-31,57.0,41.4,28.0,39.0,33.0,26.0,94,75,49,0.00,40.00,9,5,14,0.00
2013-11-1,61.0,45.9,34.0,41.0,37.0,31.0,97,75,41,0.00,40.00,11,4,18,0.00
2013-11-2,61.0,44.1,32.0,42.0,33.3,-99.9,95,70,38,0.00,40.00,22,11,30,0.00
2013-11-3,45.0,34.0,22.0,33.0,25.7,20.0,93,73,44,0.00,40.00,16,6,27,0.01
2013-11-4,44.0,29.7,19.0,35.0,22.3,16.0,97,76,44,0.00,40.00,12,6,20,0.01
2013-11-5,46.0,30.8,14.0,37.0,22.2,12.0,96,73,40,0.00,40.00,10,5,15,0.03
2013-11-6,52.0,42.0,36.0,43.0,38.8,36.0,99,90,69,0.00,40.00,5,3,7,0.06
2013-11-7,58.0,47.8,40.0,42.0,40.9,39.0,98,79,53,0.00,40.00,22,9,31,0.05
2013-11-8,51.0,42.9,33.0,42.0,33.0,28.0,89,70,41,0.00,40.00,12,7,19,0.01
2013-11-9,56.0,36.9,21.0,33.0,26.3,-99.9,94,71,32,0.00,40.00,9,4,12,0.00
2013-11-10,65.0,45.2,32.0,38.0,31.7,26.0,91,63,28,0.00,40.00,12,7,18,0.00
2013-11-11,57.0,39.0,24.0,35.0,29.6,22.0,97,74,38,0.00,40.00,6,3,10,0.00
2013-11-12,57.0,42.9,30.0,37.0,31.7,25.0,91,66,38,0.00,40.00,14,6,18,0.00
2013-11-13,57.0,43.0,33.0,41.0,34.2,28.0,96,74,44,0.00,40.00,21,9,31,0.00
2013-11-14,53.0,37.4,24.0,35.0,29.6,22.0,94,76,44,0.00,40.00,17,6,25,0.00
2013-11-15,47.0,37.0,24.0,30.0,26.0,22.0,90,65,43,0.00,40.00,17,9,25,0.00
2013-11-16,47.0,35.9,32.0,36.0,30.5,-99.9,99,84,55,0.00,40.00,23,7,36,0.15
2013-11-17,51.0,36.5,29.0,32.0,28.1,26.0,94,75,41,0.00,40.00,6,4,11,0.01
2013-11-18,51.0,36.5,26.0,36.0,28.9,23.0,90,75,48,0.00,40.00,10,4,14,0.00
2013-11-19,50.0,42.6,38.0,43.0,39.3,34.0,98,88,77,0.00,40.00,8,5,11,0.13
2013-11-20,44.0,39.6,30.0,43.0,33.5,15.0,99,80,54,0.00,40.00,26,15,36,0.19
2013-11-21,39.0,29.2,21.0,22.0,15.4,10.0,86,57,45,0.00,40.00,23,12,34,0.01
2013-11-22,40.0,25.1,14.0,22.0,17.6,11.0,91,75,45,0.00,40.00,7,3,9,0.00
2013-11-23,42.0,24.3,12.0,24.0,17.1,-99.9,91,79,48,0.00,40.00,9,4,10,0.00
2013-11-24,41.0,25.3,13.0,26.0,19.3,9.0,93,80,53,0.00,40.00,7,4,10,0.00
2013-11-25,46.0,28.2,16.0,27.0,21.4,14.0,91,78,46,0.00,40.00,6,3,11,0.00
2013-11-26,52.0,32.8,21.0,28.0,23.3,19.0,91,71,35,0.00,40.00,11,5,19,0.00
2013-11-27,49.0,32.5,21.0,29.0,24.5,19.0,92,75,42,0.00,40.00,7,4,12,0.00
2013-11-28,50.0,32.1,22.0,31.0,25.8,20.0,96,81,40,0.00,40.00,7,3,9,0.00
2013-11-29,50.0,30.4,18.0,32.0,24.8,16.0,96,82,48,0.00,40.00,7,3,9,0.00
2013-11-30,47.0,36.4,28.0,35.0,30.3,-99.9,96,82,60,0.00,40.00,6,4,8,0.00
2013-12-1,46.0,39.6,33.0,42.0,36.8,31.0,96,90,83,0.00,40.00,9,4,13,0.06
2013-12-2,55.0,42.3,27.0,37.0,33.8,24.0,97,74,46,0.00,40.00,28,11,38,0.12
2013-12-3,33.0,26.5,22.0,24.0,20.0,16.0,88,77,59,0.00,40.00,19,13,26,0.01
2013-12-4,22.0,18.9,16.0,16.0,11.6,4.0,90,73,49,0.00,40.00,9,5,13,0.00
2013-12-5,24.0,17.4,9.0,15.0,9.4,3.0,90,72,43,0.00,40.00,7,3,12,0.00
2013-12-6,25.0,17.2,9.0,15.0,8.1,4.0,83,68,50,0.00,40.00,24,11,36,0.00
2013-12-7,22.0,17.0,5.0,18.0,10.3,-99.9,91,78,64,0.00,40.00,25,17,36,0.00
2013-12-8,11.0,3.7,-3.0,-3.0,-6.8,-12.0,70,61,50,0.00,40.00,16,12,25,0.00
2013-12-9,17.0,2.8,-12.0,3.0,-5.5,-19.0,81,68,52,0.00,40.00,12,5,15,0.00
2013-12-10,20.0,12.6,4.0,9.0,4.9,-1.0,86,71,57,0.00,40.00,10,6,15,0.00
2013-12-11,24.0,14.8,5.0,14.0,7.7,1.0,86,73,62,0.00,40.00,14,7,21,0.00
2013-12-12,29.0,14.7,7.0,15.0,7.7,2.0,88,74,56,0.00,40.00,9,5,13,0.00
2013-12-13,30.0,21.9,9.0,22.0,16.7,6.0,90,80,67,0.00,40.00,10,5,15,0.00
2013-12-14,39.0,25.7,20.0,27.0,20.1,-99.9,95,82,61,0.00,40.00,10,5,13,0.00
2013-12-15,35.0,25.4,18.0,26.0,21.1,15.0,93,84,66,0.00,40.00,9,4,12,0.00
2013-12-16,24.0,18.6,13.0,23.0,17.0,10.0,95,93,89,0.00,40.00,5,2,7,0.00
2013-12-17,33.0,20.2,12.0,31.0,18.2,9.0,95,92,88,0.00,40.00,11,3,15,0.00
2013-12-18,22.0,18.8,16.0,21.0,17.1,14.0,95,93,91,0.00,40.00,9,3,12,0.00
2013-12-19,33.0,25.4,15.0,24.0,18.2,8.0,97,76,53,0.00,40.00,30,18,42,0.00
2013-12-20,31.0,19.6,5.0,25.0,11.5,0.0,96,73,42,0.00,40.00,9,5,13,0.00
2013-12-21,30.0,25.8,22.0,27.0,22.2,-99.9,97,89,79,0.00,40.00,17,11,25,0.04
2013-12-22,37.0,29.2,17.0,32.0,26.3,15.0,97,89,70,0.00,40.00,6,2,10,0.10
2013-12-23,39.0,34.3,30.0,35.0,32.7,30.0,99,94,84,0.00,40.00,23,3,38,0.01
2013-12-24,39.0,32.0,23.0,34.0,25.7,20.0,90,78,61,0.00,40.00,23,10,38,0.01
2013-12-25,39.0,26.6,15.0,27.0,20.8,12.0,93,80,60,0.00,40.00,10,6,15,0.00
2013-12-26,39.0,23.4,13.0,26.0,18.2,9.0,94,82,54,0.00,40.00,8,4,13,0.00
2013-12-27,41.0,23.4,12.0,25.0,17.8,9.0,92,81,49,0.00,40.00,14,6,18,0.00
2013-12-28,37.0,27.3,20.0,27.0,20.8,-99.9,89,79,67,0.00,40.00,23,14,29,0.00
2013-12-29,38.0,23.8,11.0,27.0,19.5,8.0,93,84,61,0.00,40.00,8,3,20,0.00
2013-12-30,36.0,26.6,16.0,28.0,21.9,14.0,94,83,62,0.00,40.00,11,4,15,0.00
2013-12-31,38.0,29.7,22.0,30.0,26.5,21.0,96,88,73,0.00,40.00,13,5,18,0.00
2014-1-1,45.0,31.2,25.0,32.0,26.6,23.0,94,84,60,0.00,40.00,15,6,20,0.00
2014-1-2,42.0,28.8,20.0,28.0,23.7,17.0,95,82,57,0.00,40.00,9,4,13,0.00